createdAt,value
2022-12-29T00:07:22.135Z,30.45
2022-12-29T00:15:40.001Z,27.17
2022-12-29T00:24:00.403Z,26.83
2022-12-29T00:32:18.359Z,25.70
2022-12-29T00:40:38.714Z,21.45
2022-12-29T00:48:56.470Z,25.60
2022-12-29T00:57:04.946Z,25.13
2022-12-29T01:05:10.970Z,24.55
2022-12-29T01:13:19.594Z,26.77
2022-12-29T01:21:25.167Z,25.98
2022-12-29T01:29:33.220Z,25.25
2022-12-29T01:37:38.623Z,27.17
2022-12-29T01:45:52.259Z,25.73
2022-12-29T01:53:59.738Z,26.75
2022-12-29T02:02:08.570Z,28.70
2022-12-29T02:10:14.057Z,22.70
2022-12-29T02:18:36.440Z,24.00
2022-12-29T02:27:12.308Z,24.38
2022-12-29T02:35:32.032Z,22.60
2022-12-29T02:43:43.516Z,24.30
2022-12-29T02:51:56.775Z,22.83
2022-12-29T03:00:08.764Z,24.20
2022-12-29T03:08:27.047Z,21.65
2022-12-29T03:16:40.345Z,22.42
2022-12-29T03:24:52.117Z,22.60
2022-12-29T03:33:02.547Z,23.77
2022-12-29T03:41:18.653Z,23.85
2022-12-29T03:57:32.924Z,22.95
2022-12-29T04:05:42.624Z,21.38
2022-12-29T04:13:50.833Z,25.70
2022-12-29T04:22:00.531Z,23.92
2022-12-29T04:30:10.865Z,23.73
2022-12-29T04:38:31.748Z,24.55
2022-12-29T04:46:47.029Z,25.98
2022-12-29T04:55:08.443Z,24.33
2022-12-29T05:03:16.812Z,32.42
2022-12-29T05:11:24.281Z,34.92
2022-12-29T05:19:34.825Z,42.53
2022-12-29T05:27:40.812Z,38.25
2022-12-29T05:36:01.219Z,35.97
2022-12-29T05:44:07.257Z,32.15
2022-12-29T05:52:34.005Z,33.30
2022-12-29T06:00:39.633Z,31.30
2022-12-29T06:08:48.241Z,36.05
2022-12-29T06:16:53.814Z,37.60
2022-12-29T06:25:05.162Z,30.83
2022-12-29T06:33:13.140Z,27.90
2022-12-29T06:41:23.553Z,25.00
2022-12-29T06:49:49.789Z,27.05
2022-12-29T06:57:58.547Z,28.00
2022-12-29T07:06:04.015Z,28.42
2022-12-29T07:14:12.405Z,33.35
2022-12-29T07:22:18.153Z,34.00
2022-12-29T07:30:26.502Z,26.85
2022-12-29T07:38:32.852Z,33.25
2022-12-29T07:46:56.343Z,29.23
2022-12-29T07:55:02.871Z,25.48
2022-12-29T08:03:11.097Z,24.33
2022-12-29T08:11:16.791Z,22.73
2022-12-29T08:19:25.665Z,25.38
2022-12-29T08:27:31.563Z,28.92
2022-12-29T08:35:43.158Z,26.88
2022-12-29T08:43:51.382Z,24.95
2022-12-29T08:51:59.646Z,26.45
2022-12-29T09:00:09.274Z,21.17
2022-12-29T09:08:23.883Z,22.80
2022-12-29T09:16:34.752Z,20.33
2022-12-29T09:26:07.553Z,18.48
2022-12-29T10:35:24.410Z,23.52
2022-12-29T10:43:52.462Z,25.20
2022-12-29T10:52:05.168Z,25.50
2022-12-29T11:00:24.265Z,18.15
2022-12-29T11:08:39.355Z,25.80
2022-12-29T11:16:47.481Z,23.70
2022-12-29T11:25:08.960Z,24.70
2022-12-29T11:33:24.688Z,27.42
2022-12-29T11:41:36.031Z,28.13
2022-12-29T11:49:42.723Z,25.40
2022-12-29T11:57:51.273Z,30.10
2022-12-29T12:06:02.844Z,29.23
2022-12-29T12:14:22.039Z,24.92
2022-12-29T12:22:58.525Z,27.88
2022-12-29T12:31:09.475Z,28.85
2022-12-29T12:39:30.666Z,28.85
2022-12-29T12:47:56.617Z,33.10
2022-12-29T12:56:27.759Z,32.08
2022-12-29T13:05:09.027Z,33.20
2022-12-29T13:13:38.070Z,30.10
2022-12-29T13:22:05.714Z,27.08
2022-12-29T13:30:17.016Z,23.35
2022-12-29T13:38:33.036Z,26.48
2022-12-29T13:46:46.853Z,27.95
2022-12-29T13:55:04.111Z,32.83
2022-12-29T14:03:46.803Z,28.63
2022-12-29T14:11:55.648Z,29.70
2022-12-29T14:20:03.697Z,41.63
2022-12-29T14:28:27.719Z,28.85
2022-12-29T14:36:40.458Z,21.77
2022-12-29T14:44:59.820Z,25.83
2022-12-29T14:53:09.546Z,42.92
2022-12-29T15:01:26.607Z,41.53
2022-12-29T15:09:39.874Z,45.03
2022-12-29T15:17:48.904Z,30.97
2022-12-29T15:25:59.927Z,30.70
2022-12-29T15:34:15.842Z,36.63
2022-12-29T15:42:43.813Z,44.63
2022-12-29T15:50:52.677Z,51.03
2022-12-29T15:58:59.579Z,59.85
2022-12-29T16:07:11.016Z,42.95
2022-12-29T16:15:18.126Z,36.95
2022-12-29T16:23:36.617Z,44.10
2022-12-29T16:32:01.928Z,39.00
2022-12-29T16:40:32.450Z,40.90
2022-12-29T16:48:41.194Z,36.35
2022-12-29T16:56:50.399Z,43.22
2022-12-29T17:04:55.947Z,41.08
2022-12-29T17:13:07.133Z,37.10
2022-12-29T17:21:14.059Z,41.03
2022-12-29T17:29:28.852Z,46.72
2022-12-29T17:37:37.862Z,60.55
2022-12-29T17:54:55.926Z,51.22
2022-12-29T18:12:43.770Z,49.88
2022-12-29T18:20:59.318Z,47.67
2022-12-29T18:29:37.056Z,53.40
2022-12-29T18:46:50.265Z,39.47
2022-12-29T19:04:30.832Z,47.92
2022-12-29T19:21:26.738Z,52.00
2022-12-29T19:29:34.944Z,48.75
2022-12-29T19:37:44.348Z,51.08
2022-12-29T19:45:51.590Z,59.53
2022-12-29T20:03:47.107Z,47.47
2022-12-29T20:12:13.856Z,45.58
2022-12-29T20:20:25.148Z,42.67
2022-12-29T20:29:13.859Z,47.50
2022-12-29T20:37:23.162Z,47.88
2022-12-29T20:55:11.967Z,33.38
2022-12-29T21:03:20.963Z,35.72
2022-12-29T21:11:27.055Z,35.28
2022-12-29T21:19:35.407Z,34.60
2022-12-29T21:27:40.802Z,40.47
2022-12-29T21:35:53.564Z,48.10
2022-12-29T21:44:11.386Z,30.20
2022-12-29T22:09:44.489Z,48.83
2022-12-29T22:35:18.039Z,44.60
2022-12-29T22:43:24.627Z,46.55
2022-12-29T22:51:32.894Z,52.75
2022-12-29T22:59:50.091Z,40.05
2022-12-29T23:07:58.018Z,44.20
2022-12-29T23:51:08.984Z,44.15
2022-12-29T23:59:14.400Z,42.65
